sensor_id;sensor_type;location;lat;lon;timestamp;pressure;altitude;pressure_sealevel;temperature;humidity
67457;BME280;54319;52.038;4.640;2023-05-23T00:01:00;102097.00;;;12.73;100.00
67457;BME280;54319;52.038;4.640;2023-05-23T00:03:27;102108.03;;;12.80;100.00
67457;BME280;54319;52.038;4.640;2023-05-23T00:05:55;102105.88;;;12.75;100.00
67457;BME280;54319;52.038;4.640;2023-05-23T00:08:23;102106.50;;;12.77;100.00
67457;BME280;54319;52.038;4.640;2023-05-23T00:10:50;102108.22;;;12.78;100.00
67457;BME280;54319;52.038;4.640;2023-05-23T00:13:18;102102.09;;;12.76;100.00
67457;BME280;54319;52.038;4.640;2023-05-23T00:15:44;102114.34;;;12.80;100.00
67457;BME280;54319;52.038;4.640;2023-05-23T00:18:13;102105.47;;;12.78;100.00
67457;BME280;54319;52.038;4.640;2023-05-23T00:20:41;102116.03;;;12.81;100.00
67457;BME280;54319;52.038;4.640;2023-05-23T00:23:08;102114.34;;;12.80;100.00
67457;BME280;54319;52.038;4.640;2023-05-23T00:25:35;102101.91;;;12.78;100.00
67457;BME280;54319;52.038;4.640;2023-05-23T00:28:03;102113.25;;;12.74;100.00
67457;BME280;54319;52.038;4.640;2023-05-23T00:30:32;102125.94;;;12.82;100.00
67457;BME280;54319;52.038;4.640;2023-05-23T00:32:59;102124.63;;;12.78;100.00
67457;BME280;54319;52.038;4.640;2023-05-23T00:35:26;102116.88;;;12.82;100.00
67457;BME280;54319;52.038;4.640;2023-05-23T00:37:52;102117.16;;;12.87;100.00
67457;BME280;54319;52.038;4.640;2023-05-23T00:40:20;102127.22;;;12.86;100.00
67457;BME280;54319;52.038;4.640;2023-05-23T00:42:47;102127.06;;;12.88;100.00
67457;BME280;54319;52.038;4.640;2023-05-23T00:45:14;102104.47;;;12.64;100.00
67457;BME280;54319;52.038;4.640;2023-05-23T00:47:46;102130.66;;;12.88;100.00
67457;BME280;54319;52.038;4.640;2023-05-23T00:50:14;102129.13;;;12.86;100.00
67457;BME280;54319;52.038;4.640;2023-05-23T00:52:41;102125.19;;;12.88;100.00
67457;BME280;54319;52.038;4.640;2023-05-23T00:55:09;102131.50;;;12.89;100.00
67457;BME280;54319;52.038;4.640;2023-05-23T00:57:37;102121.09;;;12.84;100.00
67457;BME280;54319;52.038;4.640;2023-05-23T01:00:06;102126.19;;;12.87;100.00
67457;BME280;54319;52.038;4.640;2023-05-23T01:02:36;102122.16;;;12.83;100.00
67457;BME280;54319;52.038;4.640;2023-05-23T01:05:10;102095.31;;;12.72;100.00
67457;BME280;54319;52.038;4.640;2023-05-23T01:07:38;102120.72;;;12.87;100.00
67457;BME280;54319;52.038;4.640;2023-05-23T01:10:06;102126.41;;;12.86;100.00
67457;BME280;54319;52.038;4.640;2023-05-23T01:12:50;102123.66;;;12.86;100.00
67457;BME280;54319;52.038;4.640;2023-05-23T01:15:24;102111.84;;;12.85;100.00
67457;BME280;54319;52.038;4.640;2023-05-23T01:17:58;102100.00;;;12.78;100.00
67457;BME280;54319;52.038;4.640;2023-05-23T01:20:31;102125.81;;;12.91;100.00
67457;BME280;54319;52.038;4.640;2023-05-23T01:23:28;102124.13;;;12.90;100.00
67457;BME280;54319;52.038;4.640;2023-05-23T01:26:28;102138.09;;;12.95;100.00
67457;BME280;54319;52.038;4.640;2023-05-23T01:29:01;102145.25;;;12.96;100.00
67457;BME280;54319;52.038;4.640;2023-05-23T01:31:35;102122.38;;;12.82;100.00
67457;BME280;54319;52.038;4.640;2023-05-23T01:34:03;102113.91;;;12.77;100.00
67457;BME280;54319;52.038;4.640;2023-05-23T01:36:32;102142.91;;;12.93;100.00
67457;BME280;54319;52.038;4.640;2023-05-23T01:38:59;102126.47;;;12.93;100.00
67457;BME280;54319;52.038;4.640;2023-05-23T01:41:26;102141.00;;;12.93;100.00
67457;BME280;54319;52.038;4.640;2023-05-23T01:43:53;102141.88;;;12.94;100.00
67457;BME280;54319;52.038;4.640;2023-05-23T01:46:23;102143.16;;;12.98;100.00
67457;BME280;54319;52.038;4.640;2023-05-23T01:48:50;102131.56;;;12.96;100.00
67457;BME280;54319;52.038;4.640;2023-05-23T01:51:17;102136.81;;;12.97;99.56
67457;BME280;54319;52.038;4.640;2023-05-23T01:53:44;102140.03;;;13.01;99.48
67457;BME280;54319;52.038;4.640;2023-05-23T01:56:11;102144.84;;;12.99;99.29
67457;BME280;54319;52.038;4.640;2023-05-23T01:58:39;102145.50;;;13.01;98.72
67457;BME280;54319;52.038;4.640;2023-05-23T02:01:05;102137.69;;;12.98;98.84
67457;BME280;54319;52.038;4.640;2023-05-23T02:03:34;102142.31;;;12.97;98.41
67457;BME280;54319;52.038;4.640;2023-05-23T02:06:00;102133.44;;;12.95;98.21
67457;BME280;54319;52.038;4.640;2023-05-23T02:08:27;102136.50;;;12.85;98.23
67457;BME280;54319;52.038;4.640;2023-05-23T02:10:54;102146.31;;;12.95;98.20
67457;BME280;54319;52.038;4.640;2023-05-23T02:13:20;102153.88;;;12.93;98.52
67457;BME280;54319;52.038;4.640;2023-05-23T02:15:47;102147.75;;;12.91;98.76
67457;BME280;54319;52.038;4.640;2023-05-23T02:18:14;102155.81;;;12.99;97.60
67457;BME280;54319;52.038;4.640;2023-05-23T02:20:42;102151.31;;;12.91;97.89
67457;BME280;54319;52.038;4.640;2023-05-23T02:23:08;102152.81;;;12.94;97.91
67457;BME280;54319;52.038;4.640;2023-05-23T02:25:35;102108.91;;;12.65;97.61
67457;BME280;54319;52.038;4.640;2023-05-23T02:28:01;102116.56;;;12.70;97.35
67457;BME280;54319;52.038;4.640;2023-05-23T02:30:29;102166.91;;;12.91;97.40
67457;BME280;54319;52.038;4.640;2023-05-23T02:32:56;102167.09;;;12.89;97.08
67457;BME280;54319;52.038;4.640;2023-05-23T02:35:23;102163.44;;;12.82;97.03
67457;BME280;54319;52.038;4.640;2023-05-23T02:37:53;102159.41;;;12.78;96.47
67457;BME280;54319;52.038;4.640;2023-05-23T02:40:20;102174.56;;;12.80;96.57
67457;BME280;54319;52.038;4.640;2023-05-23T02:42:46;102178.75;;;12.76;96.20
67457;BME280;54319;52.038;4.640;2023-05-23T02:45:15;102176.88;;;12.77;96.22
67457;BME280;54319;52.038;4.640;2023-05-23T02:47:42;102175.34;;;12.74;96.25
67457;BME280;54319;52.038;4.640;2023-05-23T02:50:09;102165.19;;;12.68;96.62
67457;BME280;54319;52.038;4.640;2023-05-23T02:52:36;102181.22;;;12.71;96.27
67457;BME280;54319;52.038;4.640;2023-05-23T02:55:05;102186.69;;;12.71;95.88
67457;BME280;54319;52.038;4.640;2023-05-23T02:57:31;102188.66;;;12.77;95.63
67457;BME280;54319;52.038;4.640;2023-05-23T02:59:58;102178.75;;;12.76;95.24
67457;BME280;54319;52.038;4.640;2023-05-23T03:02:25;102191.34;;;12.70;95.40
67457;BME280;54319;52.038;4.640;2023-05-23T03:04:51;102181.78;;;12.66;95.34
67457;BME280;54319;52.038;4.640;2023-05-23T03:07:18;102190.97;;;12.73;95.12
67457;BME280;54319;52.038;4.640;2023-05-23T03:09:46;102196.44;;;12.73;94.58
67457;BME280;54319;52.038;4.640;2023-05-23T03:12:14;102202.75;;;12.74;94.41
67457;BME280;54319;52.038;4.640;2023-05-23T03:14:41;102190.22;;;12.65;94.30
67457;BME280;54319;52.038;4.640;2023-05-23T03:17:07;102190.22;;;12.65;94.29
67457;BME280;54319;52.038;4.640;2023-05-23T03:19:34;102174.09;;;12.55;94.53
67457;BME280;54319;52.038;4.640;2023-05-23T03:22:00;102193.78;;;12.65;94.97
67457;BME280;54319;52.038;4.640;2023-05-23T03:24:27;102186.63;;;12.64;94.51
67457;BME280;54319;52.038;4.640;2023-05-23T03:26:53;102202.38;;;12.62;94.04
67457;BME280;54319;52.038;4.640;2023-05-23T03:29:21;102205.06;;;12.55;93.79
67457;BME280;54319;52.038;4.640;2023-05-23T03:31:48;102200.81;;;12.53;93.97
67457;BME280;54319;52.038;4.640;2023-05-23T03:34:15;102198.19;;;12.44;93.52
67457;BME280;54319;52.038;4.640;2023-05-23T03:36:42;102199.41;;;12.42;93.49
67457;BME280;54319;52.038;4.640;2023-05-23T03:39:08;102200.28;;;12.42;93.00
67457;BME280;54319;52.038;4.640;2023-05-23T03:41:35;102204.13;;;12.48;92.55
67457;BME280;54319;52.038;4.640;2023-05-23T03:44:01;102210.34;;;12.42;92.16
67457;BME280;54319;52.038;4.640;2023-05-23T03:46:29;102210.34;;;12.42;91.95
67457;BME280;54319;52.038;4.640;2023-05-23T03:48:56;102213.31;;;12.40;91.62
67457;BME280;54319;52.038;4.640;2023-05-23T03:51:23;102214.34;;;12.39;91.78
67457;BME280;54319;52.038;4.640;2023-05-23T03:53:49;102223.22;;;12.41;91.37
67457;BME280;54319;52.038;4.640;2023-05-23T03:56:16;102221.41;;;12.34;91.58
67457;BME280;54319;52.038;4.640;2023-05-23T03:58:43;102224.16;;;12.34;90.88
67457;BME280;54319;52.038;4.640;2023-05-23T04:01:10;102227.28;;;12.30;91.08
67457;BME280;54319;52.038;4.640;2023-05-23T04:03:38;102232.25;;;12.27;91.07
67457;BME280;54319;52.038;4.640;2023-05-23T04:06:05;102228.69;;;12.26;90.41
67457;BME280;54319;52.038;4.640;2023-05-23T04:08:31;102251.34;;;12.20;90.36
67457;BME280;54319;52.038;4.640;2023-05-23T04:10:59;102249.44;;;12.21;90.12
67457;BME280;54319;52.038;4.640;2023-05-23T04:13:26;102247.19;;;12.09;89.27
67457;BME280;54319;52.038;4.640;2023-05-23T04:15:55;102227.28;;;12.00;88.54
67457;BME280;54319;52.038;4.640;2023-05-23T04:18:22;102242.53;;;12.10;88.97
67457;BME280;54319;52.038;4.640;2023-05-23T04:20:50;102250.75;;;12.10;89.19
67457;BME280;54319;52.038;4.640;2023-05-23T04:23:16;102253.69;;;12.08;88.97
67457;BME280;54319;52.038;4.640;2023-05-23T04:25:43;102246.03;;;12.04;89.28
67457;BME280;54319;52.038;4.640;2023-05-23T04:28:10;102250.34;;;11.98;88.73
67457;BME280;54319;52.038;4.640;2023-05-23T04:30:37;102263.00;;;11.99;88.97
67457;BME280;54319;52.038;4.640;2023-05-23T04:33:04;102267.25;;;12.01;88.27
67457;BME280;54319;52.038;4.640;2023-05-23T04:35:30;102262.50;;;11.95;87.97
67457;BME280;54319;52.038;4.640;2023-05-23T04:37:59;102262.59;;;11.87;87.61
67457;BME280;54319;52.038;4.640;2023-05-23T04:40:28;102271.75;;;11.94;87.86
67457;BME280;54319;52.038;4.640;2023-05-23T04:42:54;102273.28;;;11.97;88.05
67457;BME280;54319;52.038;4.640;2023-05-23T04:45:21;102274.09;;;11.97;88.12
67457;BME280;54319;52.038;4.640;2023-05-23T04:47:48;102278.91;;;11.95;88.89
67457;BME280;54319;52.038;4.640;2023-05-23T04:50:15;102284.38;;;11.95;89.23
67457;BME280;54319;52.038;4.640;2023-05-23T04:52:42;102272.13;;;11.91;88.82
67457;BME280;54319;52.038;4.640;2023-05-23T04:55:10;102286.75;;;11.98;88.53
67457;BME280;54319;52.038;4.640;2023-05-23T04:57:37;102295.09;;;12.05;88.03
67457;BME280;54319;52.038;4.640;2023-05-23T05:00:04;102283.13;;;12.06;87.09
67457;BME280;54319;52.038;4.640;2023-05-23T05:02:34;102292.63;;;12.10;87.22
67457;BME280;54319;52.038;4.640;2023-05-23T05:05:01;102291.13;;;12.08;87.31
67457;BME280;54319;52.038;4.640;2023-05-23T05:07:29;102307.53;;;12.08;86.54
67457;BME280;54319;52.038;4.640;2023-05-23T05:09:55;102301.69;;;12.11;86.20
67457;BME280;54319;52.038;4.640;2023-05-23T05:12:23;102302.38;;;12.13;85.68
67457;BME280;54319;52.038;4.640;2023-05-23T05:14:50;102311.59;;;12.12;85.36
67457;BME280;54319;52.038;4.640;2023-05-23T05:17:16;102306.13;;;12.12;84.88
67457;BME280;54319;52.038;4.640;2023-05-23T05:19:44;102304.13;;;12.06;84.14
67457;BME280;54319;52.038;4.640;2023-05-23T05:22:10;102316.78;;;12.07;84.84
67457;BME280;54319;52.038;4.640;2023-05-23T05:24:37;102312.16;;;12.07;83.95
67457;BME280;54319;52.038;4.640;2023-05-23T05:27:04;102322.25;;;12.07;84.26
67457;BME280;54319;52.038;4.640;2023-05-23T05:29:32;102323.78;;;12.09;84.29
67457;BME280;54319;52.038;4.640;2023-05-23T05:31:59;102322.25;;;12.07;84.31
67457;BME280;54319;52.038;4.640;2023-05-23T05:34:27;102319.03;;;12.03;84.62
67457;BME280;54319;52.038;4.640;2023-05-23T05:36:54;102323.94;;;12.08;85.36
67457;BME280;54319;52.038;4.640;2023-05-23T05:39:23;102325.19;;;12.05;85.04
67457;BME280;54319;52.038;4.640;2023-05-23T05:41:50;102332.81;;;12.10;84.48
67457;BME280;54319;52.038;4.640;2023-05-23T05:44:16;102329.13;;;12.02;84.30
67457;BME280;54319;52.038;4.640;2023-05-23T05:46:44;102332.34;;;12.06;84.50
67457;BME280;54319;52.038;4.640;2023-05-23T05:49:12;102332.81;;;12.10;84.46
67457;BME280;54319;52.038;4.640;2023-05-23T05:51:39;102336.91;;;12.14;84.45
67457;BME280;54319;52.038;4.640;2023-05-23T05:54:06;102324.69;;;12.01;85.12
67457;BME280;54319;52.038;4.640;2023-05-23T05:56:32;102347.72;;;12.07;85.89
67457;BME280;54319;52.038;4.640;2023-05-23T05:58:59;102336.13;;;12.05;86.09
67457;BME280;54319;52.038;4.640;2023-05-23T06:01:26;102336.41;;;12.10;86.30
67457;BME280;54319;52.038;4.640;2023-05-23T06:03:54;102332.19;;;11.99;87.36
67457;BME280;54319;52.038;4.640;2023-05-23T06:06:21;102340.25;;;12.01;87.91
67457;BME280;54319;52.038;4.640;2023-05-23T06:08:47;102342.38;;;12.14;87.95
67457;BME280;54319;52.038;4.640;2023-05-23T06:11:14;102348.88;;;12.13;89.51
67457;BME280;54319;52.038;4.640;2023-05-23T06:13:41;102354.81;;;12.16;89.31
67457;BME280;54319;52.038;4.640;2023-05-23T06:16:09;102363.09;;;12.08;87.33
67457;BME280;54319;52.038;4.640;2023-05-23T06:18:36;102357.75;;;12.15;87.18
67457;BME280;54319;52.038;4.640;2023-05-23T06:21:04;102342.44;;;12.06;87.47
67457;BME280;54319;52.038;4.640;2023-05-23T06:23:31;102362.91;;;12.10;87.62
67457;BME280;54319;52.038;4.640;2023-05-23T06:25:57;102351.28;;;12.08;88.40
67457;BME280;54319;52.038;4.640;2023-05-23T06:28:24;102347.28;;;11.95;88.51
67457;BME280;54319;52.038;4.640;2023-05-23T06:30:51;102356.41;;;11.87;88.97
67457;BME280;54319;52.038;4.640;2023-05-23T06:33:17;102362.38;;;11.91;89.30
67457;BME280;54319;52.038;4.640;2023-05-23T06:35:44;102361.50;;;11.91;90.14
67457;BME280;54319;52.038;4.640;2023-05-23T06:38:12;102360.59;;;11.98;89.74
67457;BME280;54319;52.038;4.640;2023-05-23T06:40:38;102357.00;;;11.98;89.82
67457;BME280;54319;52.038;4.640;2023-05-23T06:43:05;102367.47;;;11.94;90.39
67457;BME280;54319;52.038;4.640;2023-05-23T06:45:31;102370.19;;;11.94;90.71
67457;BME280;54319;52.038;4.640;2023-05-23T06:47:59;102374.63;;;11.95;89.60
67457;BME280;54319;52.038;4.640;2023-05-23T06:50:26;102367.47;;;11.94;87.81
67457;BME280;54319;52.038;4.640;2023-05-23T06:52:52;102357.84;;;11.98;86.53
67457;BME280;54319;52.038;4.640;2023-05-23T06:55:20;102343.88;;;11.93;85.82
67457;BME280;54319;52.038;4.640;2023-05-23T06:57:47;102355.34;;;12.12;84.15
67457;BME280;54319;52.038;4.640;2023-05-23T07:00:16;102377.66;;;12.24;83.27
67457;BME280;54319;52.038;4.640;2023-05-23T07:02:43;102369.47;;;12.39;81.44
67457;BME280;54319;52.038;4.640;2023-05-23T07:05:12;102369.09;;;12.42;79.59
67457;BME280;54319;52.038;4.640;2023-05-23T07:07:44;102385.63;;;12.49;78.56
67457;BME280;54319;52.038;4.640;2023-05-23T07:10:11;102363.63;;;12.42;77.21
67457;BME280;54319;52.038;4.640;2023-05-23T07:12:39;102380.53;;;12.76;76.94
67457;BME280;54319;52.038;4.640;2023-05-23T07:15:06;102372.28;;;13.06;74.74
67457;BME280;54319;52.038;4.640;2023-05-23T07:17:33;102386.31;;;13.48;74.01
67457;BME280;54319;52.038;4.640;2023-05-23T07:20:00;102379.78;;;13.92;70.90
67457;BME280;54319;52.038;4.640;2023-05-23T07:22:27;102380.28;;;14.24;70.87
67457;BME280;54319;52.038;4.640;2023-05-23T07:24:54;102385.13;;;14.79;68.52
67457;BME280;54319;52.038;4.640;2023-05-23T07:27:21;102385.16;;;15.41;67.39
67457;BME280;54319;52.038;4.640;2023-05-23T07:29:49;102387.97;;;15.82;64.16
67457;BME280;54319;52.038;4.640;2023-05-23T07:32:16;102394.53;;;15.81;62.60
67457;BME280;54319;52.038;4.640;2023-05-23T07:34:42;102390.06;;;15.59;60.15
67457;BME280;54319;52.038;4.640;2023-05-23T07:37:09;102364.63;;;15.37;62.01
67457;BME280;54319;52.038;4.640;2023-05-23T07:39:36;102406.16;;;15.62;60.66
67457;BME280;54319;52.038;4.640;2023-05-23T07:42:03;102392.69;;;16.01;61.18
67457;BME280;54319;52.038;4.640;2023-05-23T07:44:29;102403.69;;;16.48;58.91
67457;BME280;54319;52.038;4.640;2023-05-23T07:46:57;102405.75;;;16.73;57.03
67457;BME280;54319;52.038;4.640;2023-05-23T07:49:24;102393.22;;;16.84;58.62
67457;BME280;54319;52.038;4.640;2023-05-23T07:51:51;102404.84;;;17.00;56.58
67457;BME280;54319;52.038;4.640;2023-05-23T07:54:17;102401.59;;;17.23;55.56
67457;BME280;54319;52.038;4.640;2023-05-23T07:56:44;102410.78;;;16.97;54.57
67457;BME280;54319;52.038;4.640;2023-05-23T07:59:10;102413.78;;;16.95;55.72
67457;BME280;54319;52.038;4.640;2023-05-23T08:01:37;102411.63;;;17.04;57.47
67457;BME280;54319;52.038;4.640;2023-05-23T08:04:06;102409.72;;;17.04;57.09
67457;BME280;54319;52.038;4.640;2023-05-23T08:06:32;102413.97;;;17.07;55.81
67457;BME280;54319;52.038;4.640;2023-05-23T08:09:00;102423.72;;;16.96;55.32
67457;BME280;54319;52.038;4.640;2023-05-23T08:11:27;102423.06;;;17.14;55.70
67457;BME280;54319;52.038;4.640;2023-05-23T08:13:54;102427.69;;;17.20;54.81
67457;BME280;54319;52.038;4.640;2023-05-23T08:16:21;102416.69;;;17.14;56.34
67457;BME280;54319;52.038;4.640;2023-05-23T08:18:48;102427.25;;;17.24;53.78
67457;BME280;54319;52.038;4.640;2023-05-23T08:21:16;102422.44;;;17.58;53.36
67457;BME280;54319;52.038;4.640;2023-05-23T08:23:42;102425.69;;;17.80;54.13
67457;BME280;54319;52.038;4.640;2023-05-23T08:26:09;102424.94;;;18.30;52.31
67457;BME280;54319;52.038;4.640;2023-05-23T08:28:36;102412.28;;;18.16;50.19
67457;BME280;54319;52.038;4.640;2023-05-23T08:31:02;102437.94;;;17.91;48.33
67457;BME280;54319;52.038;4.640;2023-05-23T08:33:29;102440.69;;;17.59;50.67
67457;BME280;54319;52.038;4.640;2023-05-23T08:35:55;102432.06;;;17.42;52.47
67457;BME280;54319;52.038;4.640;2023-05-23T08:38:23;102434.81;;;17.48;52.24
67457;BME280;54319;52.038;4.640;2023-05-23T08:40:51;102440.72;;;17.52;51.88
67457;BME280;54319;52.038;4.640;2023-05-23T08:43:18;102388.34;;;17.45;51.77
67457;BME280;54319;52.038;4.640;2023-05-23T08:45:46;102435.59;;;17.56;49.66
67457;BME280;54319;52.038;4.640;2023-05-23T08:48:15;102422.56;;;17.31;51.68
67457;BME280;54319;52.038;4.640;2023-05-23T08:50:47;102425.47;;;17.49;51.96
67457;BME280;54319;52.038;4.640;2023-05-23T08:53:15;102430.22;;;17.29;52.84
67457;BME280;54319;52.038;4.640;2023-05-23T08:55:46;102437.91;;;17.13;50.93
67457;BME280;54319;52.038;4.640;2023-05-23T08:58:14;102444.44;;;17.26;54.80
67457;BME280;54319;52.038;4.640;2023-05-23T09:00:41;102437.91;;;17.59;54.23
67457;BME280;54319;52.038;4.640;2023-05-23T09:03:08;102437.03;;;17.65;50.30
67457;BME280;54319;52.038;4.640;2023-05-23T09:05:35;102444.50;;;17.58;50.63
67457;BME280;54319;52.038;4.640;2023-05-23T09:08:02;102449.69;;;17.34;50.44
67457;BME280;54319;52.038;4.640;2023-05-23T09:10:29;102454.38;;;17.33;51.11
67457;BME280;54319;52.038;4.640;2023-05-23T09:12:57;102457.94;;;17.47;50.50
67457;BME280;54319;52.038;4.640;2023-05-23T09:15:23;102459.09;;;17.72;50.98
67457;BME280;54319;52.038;4.640;2023-05-23T09:17:51;102443.31;;;17.79;50.59
67457;BME280;54319;52.038;4.640;2023-05-23T09:20:18;102462.16;;;17.89;50.40
67457;BME280;54319;52.038;4.640;2023-05-23T09:22:45;102450.53;;;18.19;49.12
67457;BME280;54319;52.038;4.640;2023-05-23T09:25:12;102421.19;;;17.54;49.12
67457;BME280;54319;52.038;4.640;2023-05-23T09:27:39;102468.13;;;18.18;49.77
67457;BME280;54319;52.038;4.640;2023-05-23T09:30:08;102475.81;;;18.16;47.87
67457;BME280;54319;52.038;4.640;2023-05-23T09:32:36;102472.25;;;18.08;50.89
67457;BME280;54319;52.038;4.640;2023-05-23T09:35:03;102471.78;;;18.44;51.58
67457;BME280;54319;52.038;4.640;2023-05-23T09:37:30;102469.38;;;17.90;50.84
67457;BME280;54319;52.038;4.640;2023-05-23T09:39:58;102480.38;;;17.58;52.44
67457;BME280;54319;52.038;4.640;2023-05-23T09:42:30;102471.63;;;17.15;52.67
67457;BME280;54319;52.038;4.640;2023-05-23T09:44:57;102477.97;;;17.23;51.55
67457;BME280;54319;52.038;4.640;2023-05-23T09:47:26;102478.22;;;17.14;51.83
67457;BME280;54319;52.038;4.640;2023-05-23T09:49:52;102467.13;;;17.21;53.30
67457;BME280;54319;52.038;4.640;2023-05-23T09:52:19;102464.69;;;16.99;53.22
67457;BME280;54319;52.038;4.640;2023-05-23T09:54:46;102472.28;;;17.04;54.19
67457;BME280;54319;52.038;4.640;2023-05-23T09:57:14;102476.78;;;16.71;55.49
67457;BME280;54319;52.038;4.640;2023-05-23T09:59:44;102483.38;;;16.57;56.51
67457;BME280;54319;52.038;4.640;2023-05-23T10:02:16;102471.69;;;16.48;57.11
67457;BME280;54319;52.038;4.640;2023-05-23T10:04:50;102463.88;;;16.45;56.34
67457;BME280;54319;52.038;4.640;2023-05-23T10:07:19;102488.22;;;16.48;55.79
67457;BME280;54319;52.038;4.640;2023-05-23T10:09:53;102490.34;;;16.39;55.73
67457;BME280;54319;52.038;4.640;2023-05-23T10:12:46;102482.50;;;16.70;56.63
67457;BME280;54319;52.038;4.640;2023-05-23T10:15:14;102481.88;;;16.54;56.80
67457;BME280;54319;52.038;4.640;2023-05-23T10:18:05;102493.53;;;16.70;55.56
67457;BME280;54319;52.038;4.640;2023-05-23T10:20:35;102480.19;;;16.40;56.51
67457;BME280;54319;52.038;4.640;2023-05-23T10:23:05;102490.34;;;16.26;58.02
67457;BME280;54319;52.038;4.640;2023-05-23T10:25:32;102488.66;;;16.38;58.58
67457;BME280;54319;52.038;4.640;2023-05-23T10:28:01;102499.69;;;16.45;58.05
67457;BME280;54319;52.038;4.640;2023-05-23T10:30:28;102495.63;;;16.74;56.93
67457;BME280;54319;52.038;4.640;2023-05-23T10:32:55;102496.06;;;16.71;56.22
67457;BME280;54319;52.038;4.640;2023-05-23T10:35:31;102456.22;;;16.47;56.36
67457;BME280;54319;52.038;4.640;2023-05-23T10:38:06;102504.31;;;16.85;55.13
67457;BME280;54319;52.038;4.640;2023-05-23T10:40:45;102512.16;;;16.81;53.99
67457;BME280;54319;52.038;4.640;2023-05-23T10:43:19;102504.75;;;16.75;55.06
67457;BME280;54319;52.038;4.640;2023-05-23T10:45:50;102502.41;;;16.85;55.83
67457;BME280;54319;52.038;4.640;2023-05-23T10:48:21;102507.47;;;17.15;55.25
67457;BME280;54319;52.038;4.640;2023-05-23T10:51:04;102491.19;;;16.87;54.57
67457;BME280;54319;52.038;4.640;2023-05-23T10:53:35;102496.47;;;16.82;54.14
67457;BME280;54319;52.038;4.640;2023-05-23T10:56:04;102510.47;;;16.80;54.43
67457;BME280;54319;52.038;4.640;2023-05-23T10:58:32;102502.22;;;16.53;53.86
67457;BME280;54319;52.038;4.640;2023-05-23T11:01:00;102486.53;;;16.13;55.55
67457;BME280;54319;52.038;4.640;2023-05-23T11:03:32;102509.84;;;16.58;55.06
67457;BME280;54319;52.038;4.640;2023-05-23T11:06:00;102491.41;;;16.52;54.78
67457;BME280;54319;52.038;4.640;2023-05-23T11:08:27;102487.59;;;16.73;54.78
67457;BME280;54319;52.038;4.640;2023-05-23T11:11:04;102508.78;;;16.99;54.72
67457;BME280;54319;52.038;4.640;2023-05-23T11:13:53;102501.91;;;17.35;54.84
67457;BME280;54319;52.038;4.640;2023-05-23T11:16:24;102505.69;;;17.41;51.59
67457;BME280;54319;52.038;4.640;2023-05-23T11:18:51;102506.47;;;17.62;52.61
67457;BME280;54319;52.038;4.640;2023-05-23T11:21:23;102507.75;;;17.98;52.78
67457;BME280;54319;52.038;4.640;2023-05-23T11:23:53;102508.00;;;18.29;51.70
67457;BME280;54319;52.038;4.640;2023-05-23T11:26:31;102494.59;;;18.32;50.88
67457;BME280;54319;52.038;4.640;2023-05-23T11:28:58;102520.44;;;18.13;50.71
67457;BME280;54319;52.038;4.640;2023-05-23T11:31:27;102515.97;;;18.12;49.52
67457;BME280;54319;52.038;4.640;2023-05-23T11:33:54;102494.22;;;17.90;50.17
67457;BME280;54319;52.038;4.640;2023-05-23T11:36:21;102512.69;;;17.50;50.64
67457;BME280;54319;52.038;4.640;2023-05-23T11:38:48;102516.94;;;17.46;51.84
67457;BME280;54319;52.038;4.640;2023-05-23T11:41:16;102519.41;;;17.61;52.77
67457;BME280;54319;52.038;4.640;2023-05-23T11:43:50;102512.31;;;17.20;51.89
67457;BME280;54319;52.038;4.640;2023-05-23T11:46:16;102515.06;;;17.27;51.73
67457;BME280;54319;52.038;4.640;2023-05-23T11:48:44;102503.28;;;17.06;52.67
67457;BME280;54319;52.038;4.640;2023-05-23T11:51:11;102526.16;;;17.13;52.48
67457;BME280;54319;52.038;4.640;2023-05-23T11:53:38;102527.34;;;17.38;51.91
67457;BME280;54319;52.038;4.640;2023-05-23T11:56:05;102516.31;;;17.38;51.63
67457;BME280;54319;52.038;4.640;2023-05-23T11:58:34;102514.19;;;17.46;50.94
67457;BME280;54319;52.038;4.640;2023-05-23T12:01:03;102515.47;;;17.37;51.12
67457;BME280;54319;52.038;4.640;2023-05-23T12:03:30;102513.22;;;17.73;50.47
67457;BME280;54319;52.038;4.640;2023-05-23T12:05:57;102507.78;;;17.91;49.97
67457;BME280;54319;52.038;4.640;2023-05-23T12:08:25;102511.34;;;17.99;50.33
67457;BME280;54319;52.038;4.640;2023-05-23T12:10:53;102512.69;;;17.50;51.25
67457;BME280;54319;52.038;4.640;2023-05-23T12:13:23;102518.03;;;17.32;49.52
67457;BME280;54319;52.038;4.640;2023-05-23T12:15:53;102522.75;;;17.11;50.71
67457;BME280;54319;52.038;4.640;2023-05-23T12:18:21;102521.28;;;16.88;52.06
67457;BME280;54319;52.038;4.640;2023-05-23T12:20:48;102521.72;;;17.05;52.84
67457;BME280;54319;52.038;4.640;2023-05-23T12:23:20;102532.25;;;17.35;51.99
67457;BME280;54319;52.038;4.640;2023-05-23T12:25:49;102523.66;;;17.57;52.31
67457;BME280;54319;52.038;4.640;2023-05-23T12:28:17;102528.59;;;17.48;52.22
67457;BME280;54319;52.038;4.640;2023-05-23T12:30:45;102511.47;;;17.78;51.33
67457;BME280;54319;52.038;4.640;2023-05-23T12:33:13;102530.13;;;17.90;50.60
67457;BME280;54319;52.038;4.640;2023-05-23T12:35:43;102525.78;;;18.40;50.75
67457;BME280;54319;52.038;4.640;2023-05-23T12:38:14;102530.56;;;18.26;49.58
67457;BME280;54319;52.038;4.640;2023-05-23T12:40:41;102523.22;;;17.67;49.92
67457;BME280;54319;52.038;4.640;2023-05-23T12:43:08;102522.97;;;17.16;51.18
67457;BME280;54319;52.038;4.640;2023-05-23T12:45:35;102525.09;;;16.87;52.61
67457;BME280;54319;52.038;4.640;2023-05-23T12:48:03;102533.78;;;16.84;53.69
67457;BME280;54319;52.038;4.640;2023-05-23T12:50:30;102533.13;;;17.23;51.36
67457;BME280;54319;52.038;4.640;2023-05-23T12:52:58;102525.47;;;17.31;51.70